Time;durP1;ratioP1;P1;durP2;ratioP2;P2;SDS_P1;SDS_P2;PMS_P1;PMS_P2;Temp;Humidity;BMP_temperature;BMP_pressure;BME280_temperature;BME280_humidity;BME280_pressure;Samples;Min_cycle;Max_cycle;Signal;HPM_P1;HPM_P2
2022/06/16 00:01:49;;;;;;;5.38;3.65;;;22.80;35.90;;;23.13;32.59;97581.69;5023437;28;20049;-49
2022/06/16 00:04:17;;;;;;;4.45;3.40;;;22.80;36.00;;;23.08;32.82;97576.16;5021912;28;20064;-47
2022/06/16 00:06:45;;;;;;;3.55;3.10;;;22.70;35.90;;;23.04;32.63;97581.25;5023426;28;20337;-49
2022/06/16 00:09:13;;;;;;;4.25;3.25;;;22.60;35.90;;;23.00;33.05;97580.88;5022928;28;20048;-47
2022/06/16 00:11:41;;;;;;;3.60;3.30;;;22.60;36.20;;;22.95;32.81;97575.38;5022667;28;20049;-49
2022/06/16 00:14:10;;;;;;;4.78;3.05;;;22.60;35.80;;;22.93;32.89;97577.47;5023082;28;20359;-47
2022/06/16 00:16:38;;;;;;;3.58;3.28;;;22.60;36.10;;;22.95;32.99;97579.94;5023340;28;20054;-51
2022/06/16 00:19:06;;;;;;;3.85;3.03;;;22.60;36.20;;;22.92;33.20;97570.41;5022657;28;20046;-49
2022/06/16 00:21:33;;;;;;;4.15;3.35;;;22.60;36.20;;;22.94;33.09;97570.19;5023140;28;20046;-51
2022/06/16 00:24:02;;;;;;;3.50;3.20;;;22.70;36.10;;;22.95;32.68;97569.09;5022953;28;20060;-50
2022/06/16 00:26:29;;;;;;;4.70;3.38;;;22.60;35.60;;;22.93;32.61;97563.91;5022963;28;20231;-48
2022/06/16 00:28:58;;;;;;;4.88;3.40;;;22.60;35.40;;;22.89;32.51;97557.31;5023510;28;20046;-47
2022/06/16 00:31:29;;;;;;;3.78;3.28;;;22.60;35.50;;;22.88;32.77;97563.00;5022806;28;20252;-49
2022/06/16 00:33:57;;;;;;;4.43;3.25;;;22.60;35.70;;;22.85;32.11;97563.47;5021927;28;20053;-50
2022/06/16 00:36:25;;;;;;;3.35;3.05;;;22.50;35.40;;;22.83;32.40;97561.00;5022842;28;20340;-51
2022/06/16 00:38:53;;;;;;;4.90;4.40;;;22.50;35.50;;;22.81;32.27;97561.25;5022516;28;20068;-50
2022/06/16 00:41:20;;;;;;;8.57;3.25;;;22.50;35.50;;;22.78;32.34;97556.31;5022589;28;20243;-48
2022/06/16 00:43:48;;;;;;;3.28;2.97;;;22.40;35.40;;;22.77;32.54;97554.66;5021886;28;20060;-49
2022/06/16 00:46:18;;;;;;;4.15;3.67;;;22.50;35.20;;;22.77;31.89;97554.66;5022474;28;20042;-51
2022/06/16 00:48:56;;;;;;;4.63;3.38;;;22.40;34.90;;;22.77;32.33;97557.38;5023001;28;20050;-47
2022/06/16 00:51:45;;;;;;;5.25;4.00;;;22.40;35.50;;;22.75;31.78;97553.25;5021154;28;20054;-51
2022/06/16 00:54:35;;;;;;;4.15;3.08;;;22.50;34.50;;;22.71;31.79;97552.91;5021536;28;20038;-53
2022/06/16 00:57:13;;;;;;;3.75;3.20;;;22.40;34.10;;;22.74;31.80;97552.44;5021635;28;20348;-52
2022/06/16 00:59:43;;;;;;;5.40;3.60;;;22.50;34.40;;;22.74;31.73;97548.88;5020782;28;20056;-52
2022/06/16 01:02:11;;;;;;;3.45;3.15;;;22.40;34.10;;;22.71;32.21;97550.19;5021380;28;20058;-48
2022/06/16 01:04:51;;;;;;;3.50;3.08;;;22.40;34.90;;;22.66;32.40;97541.94;5020842;28;20243;-53
2022/06/16 01:07:38;;;;;;;3.90;3.17;;;22.30;35.20;;;22.60;31.99;97551.06;5022454;28;20045;-51
2022/06/16 01:10:09;;;;;;;3.60;3.10;;;22.30;35.70;;;22.55;32.43;97551.78;5020287;28;20236;-50
2022/06/16 01:16:08;;;;;;;4.90;3.47;;;22.20;36.60;;;22.47;33.08;97545.91;5021384;28;20060;-47
2022/06/16 01:18:58;;;;;;;5.55;3.80;;;22.10;36.70;;;22.36;33.01;97553.84;5020774;28;20060;-50
2022/06/16 01:21:53;;;;;;;4.65;3.20;;;22.00;36.90;;;22.28;32.89;97551.50;5022252;28;20053;-52
2022/06/16 01:24:51;;;;;;;5.60;3.88;;;21.90;36.80;;;22.16;33.12;97550.66;5020805;28;20057;-49
2022/06/16 01:27:28;;;;;;;3.38;3.08;;;21.70;37.30;;;22.09;33.35;97550.78;5020898;28;20255;-52
2022/06/16 01:30:12;;;;;;;4.53;3.63;;;21.70;37.20;;;22.07;33.11;97549.38;5022002;28;20053;-47
2022/06/16 01:33:07;;;;;;;4.50;3.38;;;21.60;36.90;;;22.03;33.48;97543.59;5005918;28;20053;-52
2022/06/16 01:36:16;;;;;;;5.40;3.50;;;21.70;37.20;;;21.98;33.83;97540.78;5020877;28;20359;-47
2022/06/16 01:38:58;;;;;;;4.88;3.38;;;21.60;37.70;;;21.95;34.24;97528.53;5021950;28;20235;-49
2022/06/16 01:41:59;;;;;;;4.35;3.65;;;21.50;37.70;;;21.91;33.80;97531.97;5020705;28;20352;-49
2022/06/16 01:45:08;;;;;;;3.20;2.90;;;21.50;38.10;;;21.84;33.93;97534.78;5004894;28;20046;-51
2022/06/16 01:47:40;;;;;;;5.22;3.42;;;21.40;38.10;;;21.82;34.25;97531.47;5021526;28;20066;-51
2022/06/16 01:50:18;;;;;;;3.45;3.00;;;21.40;37.70;;;21.77;34.47;97524.06;5005206;28;20371;-52
2022/06/16 01:53:01;;;;;;;4.72;3.33;;;21.40;38.00;;;21.77;34.52;97529.47;5020657;28;20056;-47
2022/06/16 01:55:35;;;;;;;5.80;3.95;;;21.40;38.50;;;21.74;34.40;97529.94;5020641;28;20270;-51
2022/06/16 01:58:17;;;;;;;4.43;3.78;;;21.40;38.30;;;21.74;34.93;97529.13;5004932;28;20046;-49
2022/06/16 02:00:51;;;;;;;4.63;3.47;;;21.40;39.00;;;21.69;34.79;97518.16;5020231;28;20045;-47
2022/06/16 02:03:35;;;;;;;4.40;3.92;;;21.40;38.50;;;21.69;35.20;97520.88;5020870;28;20217;-49
2022/06/16 02:06:21;;;;;;;5.07;4.50;;;21.30;39.00;;;21.68;34.95;97525.47;5004573;28;20368;-49
2022/06/16 02:08:55;;;;;;;6.82;3.85;;;21.30;39.50;;;21.57;35.27;97520.88;5004519;28;20075;-50
2022/06/16 02:11:31;;;;;;;5.20;3.65;;;21.20;39.00;;;21.54;35.01;97521.31;5004153;28;20061;-49
2022/06/16 02:14:35;;;;;;;5.40;4.40;;;21.10;39.50;;;21.50;35.36;97523.72;5009555;28;20056;-52
2022/06/16 02:17:17;;;;;;;5.03;3.55;;;21.10;39.90;;;21.49;35.25;97532.06;5010081;28;20050;-49
2022/06/16 02:19:45;;;;;;;6.22;3.92;;;21.10;39.20;;;21.46;35.53;97527.94;5023958;28;20056;-52
2022/06/16 02:22:13;;;;;;;4.78;3.35;;;21.10;39.20;;;21.41;35.35;97527.78;5024645;28;20056;-50
2022/06/16 02:24:46;;;;;;;6.88;3.60;;;21.00;39.50;;;21.38;35.72;97517.41;5024242;28;20054;-52
2022/06/16 02:27:14;;;;;;;5.55;3.83;;;21.00;39.50;;;21.36;36.07;97517.63;5023773;28;20052;-49
2022/06/16 02:29:43;;;;;;;4.97;3.70;;;21.00;40.00;;;21.33;36.31;97526.22;5025213;28;20065;-52
2022/06/16 02:32:33;;;;;;;5.95;4.22;;;20.90;41.10;;;21.29;36.28;97510.69;5024290;28;20050;-48
2022/06/16 02:35:36;;;;;;;3.92;3.53;;;20.80;41.20;;;21.10;36.99;97510.78;5024028;28;20067;-49
2022/06/16 02:39:08;;;;;;;5.18;3.97;;;20.60;41.30;;;20.99;36.63;97512.38;5023954;28;20076;-52
2022/06/16 02:42:24;;;;;;;4.78;4.20;;;20.50;42.50;;;21.00;36.70;97507.81;5025154;28;20072;-48
2022/06/16 02:45:47;;;;;;;4.78;3.65;;;20.60;42.10;;;20.94;36.91;97496.03;5023526;28;20263;-50
2022/06/16 02:48:24;;;;;;;4.10;3.70;;;20.50;43.00;;;20.92;36.85;97500.84;5022232;28;20067;-51
2022/06/16 02:51:34;;;;;;;4.45;3.67;;;20.40;41.90;;;20.89;37.20;97493.19;5037983;28;20068;-52
2022/06/16 02:54:36;;;;;;;3.63;3.33;;;20.50;43.10;;;20.87;37.41;97510.72;5017692;28;20061;-49
2022/06/16 02:57:44;;;;;;;4.15;3.63;;;20.40;43.30;;;20.84;37.34;97509.31;5008764;28;20057;-50
2022/06/16 03:00:19;;;;;;;4.15;3.72;;;20.40;43.50;;;20.86;37.24;97504.47;5023816;28;20049;-50
2022/06/16 03:02:47;;;;;;;6.15;3.40;;;20.40;42.10;;;20.83;37.33;97494.09;5023544;28;20042;-51
2022/06/16 03:05:17;;;;;;;4.63;3.90;;;20.40;42.30;;;20.82;37.08;97498.69;5023152;28;20056;-51
2022/06/16 03:07:45;;;;;;;5.75;3.60;;;20.40;41.60;;;20.77;37.14;97498.56;5023493;28;20053;-53
2022/06/16 03:13:31;;;;;;;4.20;3.65;;;20.20;41.90;;;20.65;37.29;97506.63;5032635;28;20056;-48
2022/06/16 03:16:01;;;;;;;4.10;3.67;;;20.20;42.50;;;20.66;37.65;97507.44;5022852;28;20060;-49
2022/06/16 03:18:32;;;;;;;3.97;3.58;;;20.20;42.40;;;20.65;37.74;97511.22;5022657;28;20054;-49
2022/06/16 03:21:00;;;;;;;6.13;3.17;;;20.20;42.30;;;20.64;37.69;97513.09;5023462;28;20064;-52
2022/06/16 03:23:28;;;;;;;3.67;2.97;;;20.20;42.20;;;20.63;37.65;97513.34;5023383;28;20053;-50
2022/06/16 03:25:55;;;;;;;4.80;3.40;;;20.20;42.20;;;20.61;37.83;97510.03;5022876;28;20054;-48
2022/06/16 03:28:25;;;;;;;3.40;3.08;;;20.20;42.30;;;20.58;37.67;97516.69;5022598;28;20053;-48
2022/06/16 03:30:53;;;;;;;5.57;3.60;;;20.20;41.90;;;20.59;37.60;97514.81;5024023;28;20045;-47
2022/06/16 03:33:22;;;;;;;4.15;3.75;;;20.20;42.00;;;20.59;37.63;97518.38;5022729;28;20394;-50
2022/06/16 03:35:53;;;;;;;3.05;2.75;;;20.20;42.10;;;20.56;37.29;97521.50;5022905;28;20202;-49
2022/06/16 03:40:49;;;;;;;3.83;3.38;;;20.20;40.80;;;20.58;36.26;97526.69;5022750;28;20467;-49
2022/06/16 03:43:18;;;;;;;4.00;3.40;;;20.30;39.30;;;20.38;36.17;97524.22;5022727;28;20052;-49
2022/06/16 03:45:49;;;;;;;4.18;3.72;;;20.10;39.40;;;20.29;36.39;97534.50;5022479;28;20056;-50
2022/06/16 03:48:17;;;;;;;4.90;3.50;;;20.00;39.80;;;20.35;36.43;97536.31;5022224;28;20056;-47
2022/06/16 03:50:47;;;;;;;3.85;3.50;;;20.00;39.90;;;20.30;36.54;97543.44;5022473;28;20054;-52
2022/06/16 03:53:17;;;;;;;4.03;3.60;;;20.00;39.80;;;20.22;36.72;97547.25;5022479;28;20053;-52
2022/06/16 03:55:54;;;;;;;5.32;4.40;;;19.90;40.20;;;20.30;36.50;97544.28;5022453;28;20052;-49
2022/06/16 03:58:25;;;;;;;3.88;3.45;;;20.00;40.30;;;20.30;36.82;97554.25;5022840;28;20050;-47
2022/06/16 04:00:53;;;;;;;4.78;3.38;;;20.00;40.40;;;20.33;36.93;97551.94;5022431;28;20049;-49
2022/06/16 04:06:13;;;;;;;4.15;3.40;;;20.10;40.50;;;20.46;36.73;97548.25;5022445;28;20049;-47
2022/06/16 04:08:47;;;;;;;3.78;3.20;;;20.20;40.40;;;20.56;36.63;97553.94;5022245;28;20056;-41
2022/06/16 04:11:28;;;;;;;3.85;3.42;;;20.40;40.30;;;20.60;36.77;97559.75;5021216;28;20056;-40
2022/06/16 04:14:08;;;;;;;5.32;3.65;;;20.40;40.40;;;20.60;36.61;97565.97;5021829;28;20247;-40
2022/06/16 04:16:48;;;;;;;4.03;3.42;;;20.30;40.60;;;20.55;36.98;97568.53;5021695;28;20056;-40
2022/06/16 04:19:23;;;;;;;3.97;3.58;;;20.20;41.10;;;20.55;37.07;97575.78;5022439;28;20055;-40
2022/06/16 04:21:53;;;;;;;6.80;3.83;;;20.20;41.30;;;20.46;37.35;97576.09;5022194;28;20058;-40
2022/06/16 04:24:48;;;;;;;3.90;3.35;;;20.10;42.00;;;20.38;37.53;97581.00;5022950;28;20045;-40
2022/06/16 04:27:16;;;;;;;5.10;3.85;;;20.00;41.90;;;20.42;37.26;97582.19;5022398;28;20046;-40
2022/06/16 04:29:44;;;;;;;4.03;3.40;;;20.00;41.60;;;20.41;37.59;97588.66;5022641;28;20056;-40
2022/06/16 04:32:14;;;;;;;4.20;3.78;;;20.10;41.90;;;20.47;37.35;97582.34;5021693;28;20060;-40
2022/06/16 04:34:46;;;;;;;3.85;3.55;;;20.20;41.50;;;20.55;37.39;97584.75;5021633;28;20060;-40
2022/06/16 04:37:14;;;;;;;5.10;4.28;;;20.30;41.30;;;20.58;37.24;97578.88;5021650;28;20229;-40
2022/06/16 04:39:48;;;;;;;5.65;3.40;;;20.40;41.20;;;20.67;37.20;97575.91;5006267;28;20053;-40
2022/06/16 04:42:16;;;;;;;4.70;3.80;;;20.50;41.10;;;20.73;37.09;97567.69;5022167;28;20060;-40
2022/06/16 04:44:44;;;;;;;3.72;3.30;;;20.50;40.80;;;20.76;37.49;97579.94;5021285;28;20064;-40
2022/06/16 04:47:17;;;;;;;3.92;3.55;;;20.50;40.80;;;20.78;37.21;97589.50;5021726;28;20248;-40
2022/06/16 04:49:48;;;;;;;4.35;3.95;;;20.60;41.00;;;20.78;37.47;97594.91;5021203;28;20071;-40
2022/06/16 04:52:18;;;;;;;5.38;3.95;;;20.50;41.50;;;20.78;37.68;97599.47;5021275;28;20362;-40
2022/06/16 04:54:51;;;;;;;4.40;4.00;;;20.60;41.80;;;20.81;37.78;97601.72;5021231;28;20160;-40
2022/06/16 04:57:43;;;;;;;4.60;4.10;;;20.50;41.50;;;20.87;37.50;97608.09;5021336;28;20066;-40
2022/06/16 05:00:35;;;;;;;4.50;3.83;;;20.60;41.80;;;20.70;38.39;97610.59;5022519;28;20053;-40
2022/06/16 05:03:39;;;;;;;4.47;3.47;;;20.50;42.70;;;20.72;38.38;97598.50;5035159;28;20058;-40
2022/06/16 05:06:27;;;;;;;4.25;3.85;;;20.40;42.50;;;20.76;38.22;97606.97;5031939;28;20058;-40
2022/06/16 05:09:07;;;;;;;4.10;3.70;;;20.50;42.80;;;20.82;38.60;97603.38;5021363;28;20050;-41
2022/06/16 05:11:54;;;;;;;4.32;3.53;;;20.50;42.90;;;20.84;38.53;97610.22;5020062;28;20056;-40
2022/06/16 05:14:42;;;;;;;6.65;3.80;;;20.60;43.20;;;20.89;38.40;97612.22;5041128;28;20058;-41
2022/06/16 05:17:29;;;;;;;4.57;3.92;;;20.70;42.90;;;20.94;38.47;97612.38;5024143;28;20056;-40
2022/06/16 05:20:17;;;;;;;4.93;4.05;;;20.70;43.00;;;20.95;38.85;97610.50;5022076;28;20063;-40
2022/06/16 05:23:03;;;;;;;4.57;3.97;;;20.70;43.30;;;20.91;39.41;97610.13;5026458;28;20379;-40
2022/06/16 05:25:54;;;;;;;5.57;3.67;;;20.80;43.60;;;20.94;39.29;97611.56;5029507;28;20054;-40
2022/06/16 05:28:40;;;;;;;4.95;4.13;;;20.80;43.80;;;21.01;39.50;97615.84;5021624;28;20049;-39
2022/06/16 05:31:38;;;;;;;5.72;4.50;;;20.90;43.70;;;21.09;39.39;97616.53;5055889;28;20059;-40
2022/06/16 05:34:27;;;;;;;5.32;3.78;;;21.00;43.70;;;21.13;39.95;97628.56;5020748;28;20046;-40
2022/06/16 05:37:10;;;;;;;4.30;3.90;;;21.10;44.20;;;21.03;40.37;97627.25;5021445;28;20058;-40
2022/06/16 05:40:03;;;;;;;5.32;4.22;;;20.90;45.40;;;21.08;40.26;97636.56;5024702;28;20243;-40
2022/06/16 05:42:54;;;;;;;4.85;4.28;;;21.00;44.80;;;21.12;40.24;97635.88;5026384;28;20374;-40
2022/06/16 05:45:41;;;;;;;5.85;4.22;;;21.00;44.70;;;21.08;40.62;97633.84;5026669;28;20057;-41
2022/06/16 05:48:15;;;;;;;6.35;4.07;;;20.90;45.00;;;21.07;40.62;97641.13;5024561;28;20056;-40
2022/06/16 05:50:44;;;;;;;6.28;3.80;;;20.90;45.50;;;21.02;40.80;97644.53;5024484;28;20243;-40
2022/06/16 05:53:12;;;;;;;7.63;4.80;;;20.80;45.80;;;20.97;40.99;97652.50;5025891;28;20071;-40
2022/06/16 05:55:45;;;;;;;4.25;3.85;;;20.80;45.90;;;20.95;41.22;97649.19;5025722;28;20050;-40
2022/06/16 05:58:15;;;;;;;4.70;3.85;;;20.80;46.80;;;21.08;41.02;97647.38;5024287;28;20057;-40
2022/06/16 06:00:49;;;;;;;7.13;5.40;;;20.90;46.00;;;21.02;41.32;97647.25;5024761;28;20060;-40
2022/06/16 06:03:22;;;;;;;7.00;4.70;;;20.90;46.30;;;20.97;42.17;97643.56;5024815;28;20356;-40
2022/06/16 06:05:50;;;;;;;5.85;4.47;;;20.80;47.70;;;21.03;41.81;97657.03;5024778;28;20060;-40
2022/06/16 06:16:41;;;;;;;4.75;4.10;;;21.10;47.40;;;21.32;42.20;97632.88;5025524;28;20046;-40
2022/06/16 06:19:31;;;;;;;7.13;4.78;;;21.20;47.90;;;21.38;43.46;97625.72;5023882;28;20064;-41
2022/06/16 06:22:10;;;;;;;5.97;4.20;;;21.40;48.50;;;21.25;43.96;97634.88;5025314;28;20046;-40
2022/06/16 06:24:48;;;;;;;4.70;4.18;;;21.30;49.20;;;21.40;42.85;97627.16;5024156;28;20354;-40
2022/06/16 06:27:37;;;;;;;5.35;4.68;;;21.50;48.30;;;21.49;44.02;97640.38;5024216;28;20064;-40
2022/06/16 06:30:09;;;;;;;6.20;5.50;;;21.60;48.90;;;21.48;43.66;97639.56;5025442;28;20056;-40
2022/06/16 06:32:37;;;;;;;6.47;5.60;;;21.60;48.20;;;21.48;43.10;97646.84;5025176;28;20045;-40
2022/06/16 06:35:06;;;;;;;6.05;4.65;;;21.60;47.70;;;21.56;42.93;97651.94;5024894;28;20049;-40
2022/06/16 06:37:33;;;;;;;6.82;5.05;;;21.70;48.00;;;21.73;43.03;97655.66;5023266;28;20064;-40
2022/06/16 06:40:02;;;;;;;5.65;4.60;;;21.80;47.80;;;21.84;42.85;97670.25;5023822;28;20060;-40
2022/06/16 06:42:30;;;;;;;6.95;5.00;;;22.00;48.00;;;21.89;43.23;97673.09;5024893;28;20244;-40
2022/06/16 06:44:58;;;;;;;4.88;4.38;;;22.00;47.90;;;21.95;42.99;97674.88;5024606;28;20049;-40
2022/06/16 06:47:30;;;;;;;5.18;4.68;;;22.10;47.80;;;21.95;43.05;97687.59;5024643;28;20251;-40
2022/06/16 06:49:58;;;;;;;6.57;4.40;;;22.00;48.50;;;21.89;43.11;97691.22;5025333;28;20053;-40
2022/06/16 06:52:25;;;;;;;5.97;4.90;;;21.90;48.80;;;21.81;43.95;97703.25;5024362;28;20378;-40
2022/06/16 06:54:53;;;;;;;5.50;4.85;;;21.80;49.30;;;21.77;44.07;97718.28;5024832;28;20065;-40
2022/06/16 06:57:30;;;;;;;6.03;5.43;;;21.70;50.00;;;21.37;45.12;97713.44;5024787;28;20048;-40
2022/06/16 06:59:58;;;;;;;5.55;5.00;;;21.20;51.40;;;21.32;45.05;97710.56;5023327;28;20218;-40
2022/06/16 07:02:25;;;;;;;6.70;5.75;;;21.10;51.60;;;21.27;45.93;97723.97;5024719;28;20052;-40
2022/06/16 07:04:53;;;;;;;6.25;5.55;;;21.20;52.80;;;21.10;46.21;97713.75;5024850;28;20049;-40
2022/06/16 07:07:24;;;;;;;5.53;5.03;;;21.00;52.80;;;21.22;46.64;97713.81;5024556;28;20359;-40
2022/06/16 07:09:52;;;;;;;6.80;5.85;;;21.20;52.80;;;21.22;47.24;97720.06;5024626;28;20244;-40
2022/06/16 07:12:20;;;;;;;7.65;5.75;;;21.40;53.90;;;21.42;46.80;97714.41;5024416;28;20447;-40
2022/06/16 07:14:50;;;;;;;5.68;5.05;;;21.50;53.30;;;21.54;46.12;97725.31;5024214;28;20046;-40
2022/06/16 07:17:23;;;;;;;6.03;4.93;;;21.70;52.20;;;21.64;46.79;97722.03;5024240;28;20050;-40
2022/06/16 07:19:52;;;;;;;;;;;21.90;52.20;;;21.80;45.23;97729.50;5024822;28;20240;-40
2022/06/16 07:22:20;;;;;;;5.60;5.10;;;22.00;50.30;;;21.91;45.13;97729.78;5024389;28;19917;-40
2022/06/16 07:24:48;;;;;;;6.40;4.80;;;22.10;50.90;;;22.03;44.99;97733.34;5022482;28;20046;-40
2022/06/16 07:27:19;;;;;;;5.22;4.65;;;22.20;50.20;;;22.00;44.79;97739.22;5024117;28;20050;-40
2022/06/16 07:29:49;;;;;;;7.00;5.13;;;22.30;50.10;;;22.13;44.80;97740.91;5023753;28;20048;-40
2022/06/16 07:32:20;;;;;;;5.18;4.65;;;22.40;50.30;;;22.27;44.11;97744.25;5024217;28;20046;-40
2022/06/16 07:34:48;;;;;;;5.88;5.20;;;22.50;49.30;;;22.22;43.77;97744.94;5023771;28;20048;-40
2022/06/16 07:37:18;;;;;;;5.63;4.72;;;22.50;49.00;;;22.28;43.78;97748.63;5023919;28;20244;-40
2022/06/16 07:39:47;;;;;;;6.05;5.25;;;22.50;48.80;;;22.27;43.91;97752.38;5023535;28;20050;-40
2022/06/16 07:42:15;;;;;;;5.90;5.20;;;22.60;48.40;;;22.38;43.51;97755.09;5022602;28;20056;-40
2022/06/16 07:44:44;;;;;;;6.78;5.05;;;22.70;48.00;;;22.46;43.08;97743.09;5023488;28;20046;-40
2022/06/16 07:47:12;;;;;;;5.30;4.80;;;22.80;47.60;;;22.59;43.13;97750.19;5023845;28;20251;-40
2022/06/16 07:49:40;;;;;;;5.82;5.30;;;23.00;47.60;;;22.66;43.46;97755.47;5023342;28;20247;-40
2022/06/16 07:52:08;;;;;;;5.35;4.30;;;23.20;47.40;;;22.98;43.43;97756.75;5023670;28;20355;-39
2022/06/16 07:54:38;;;;;;;5.82;4.97;;;23.50;47.30;;;23.15;42.80;97750.63;5023529;28;20243;-39
2022/06/16 07:57:22;;;;;;;5.28;4.57;;;23.70;46.80;;;23.17;42.53;97762.88;5023772;28;20038;-39
2022/06/16 07:59:58;;;;;;;7.05;4.70;;;23.60;46.50;;;23.16;42.02;97766.66;5023203;28;20344;-39
2022/06/16 08:02:27;;;;;;;5.70;5.18;;;23.60;46.00;;;23.10;41.98;97767.63;5022499;28;20049;-39
2022/06/16 08:04:55;;;;;;;6.00;4.75;;;23.50;45.70;;;23.01;41.30;97766.28;5023233;28;20045;-39
2022/06/16 08:07:23;;;;;;;7.05;4.75;;;23.30;45.40;;;22.95;41.51;97759.09;5023189;28;20049;-39
2022/06/16 08:09:51;;;;;;;5.78;4.65;;;23.20;46.10;;;23.04;42.31;97765.84;5022863;28;20045;-39
2022/06/16 08:12:20;;;;;;;5.78;5.28;;;23.20;47.30;;;22.94;42.50;97768.31;5023308;28;20221;-39
2022/06/16 08:14:48;;;;;;;7.47;5.20;;;23.10;47.50;;;22.89;42.29;97769.03;5023146;28;20056;-39
2022/06/16 08:17:25;;;;;;;6.63;5.35;;;23.00;46.80;;;22.93;41.51;97775.63;5023618;28;20064;-39
2022/06/16 08:19:55;;;;;;;5.65;5.15;;;23.00;46.30;;;23.02;41.74;97770.66;5023252;28;20045;-39
2022/06/16 08:22:24;;;;;;;6.65;5.22;;;23.10;46.40;;;22.94;42.65;97773.75;5023000;28;20251;-39
2022/06/16 08:24:52;;;;;;;8.25;5.32;;;23.10;47.10;;;23.09;42.36;97760.53;5022865;28;20058;-39
2022/06/16 08:27:26;;;;;;;9.73;5.13;;;23.20;47.00;;;23.19;42.23;97762.66;5023437;28;20053;-39
2022/06/16 08:29:54;;;;;;;6.47;5.10;;;23.40;46.90;;;23.07;41.44;97783.56;5021750;28;20056;-39
2022/06/16 08:32:23;;;;;;;5.57;4.60;;;23.40;45.30;;;23.19;41.53;97770.78;5021767;28;20344;-39
2022/06/16 08:34:51;;;;;;;6.72;5.20;;;23.40;45.70;;;23.13;41.69;97777.19;5022732;28;20042;-39
2022/06/16 08:37:21;;;;;;;6.93;5.50;;;23.50;45.70;;;23.12;41.91;97778.25;5022518;28;20042;-39
2022/06/16 08:39:49;;;;;;;8.32;6.05;;;23.40;46.10;;;23.31;42.18;97784.34;5022745;28;20045;-39
2022/06/16 08:42:29;;;;;;;6.07;5.03;;;23.60;46.50;;;23.22;42.78;97789.31;5022710;28;20053;-40
2022/06/16 08:45:07;;;;;;;7.40;5.05;;;23.60;47.10;;;23.32;41.73;97796.84;5021582;28;20049;-39
2022/06/16 08:47:48;;;;;;;8.20;5.18;;;23.60;46.50;;;23.43;41.71;97795.19;5022008;28;20045;-39
2022/06/16 08:50:33;;;;;;;6.38;5.43;;;23.70;45.80;;;23.32;41.54;97800.41;5022498;28;20096;-39
2022/06/16 08:53:35;;;;;;;8.25;5.10;;;23.70;45.70;;;23.33;42.35;97799.31;5021594;28;20045;-40
2022/06/16 08:56:13;;;;;;;7.13;4.57;;;23.60;46.70;;;23.49;41.65;97805.91;5022388;28;20049;-40
2022/06/16 08:59:08;;;;;;;8.07;5.05;;;23.80;45.90;;;23.51;41.81;97817.34;5022314;28;20045;-40
2022/06/16 09:01:47;;;;;;;6.07;5.47;;;23.80;45.90;;;23.43;41.85;97809.59;5021814;28;20076;-40
2022/06/16 09:04:31;;;;;;;7.80;4.93;;;23.80;46.00;;;23.38;42.15;97820.38;5022199;28;20050;-40
2022/06/16 09:07:11;;;;;;;8.00;4.47;;;23.80;46.30;;;23.53;42.46;97817.94;5022306;28;20348;-40
2022/06/16 09:10:23;;;;;;;8.57;4.97;;;23.90;46.70;;;23.66;42.28;97829.63;5021060;28;20045;-40
2022/06/16 09:13:25;;;;;;;6.28;5.13;;;24.00;46.60;;;23.57;41.92;97827.28;5022221;28;20049;-40
2022/06/16 09:16:11;;;;;;;4.88;4.43;;;24.00;45.70;;;23.59;41.66;97822.44;5021997;28;20056;-41
2022/06/16 09:19:36;;;;;;;5.82;4.78;;;23.90;46.00;;;23.55;41.53;97831.28;5022273;28;20056;-40
2022/06/16 09:22:16;;;;;;;6.63;4.88;;;24.00;45.60;;;23.61;41.31;97829.50;5020515;28;20052;-41
2022/06/16 09:25:02;;;;;;;6.07;5.47;;;24.00;45.50;;;23.63;41.65;97819.22;5022364;28;20064;-40
2022/06/16 09:27:59;;;;;;;7.88;4.30;;;24.00;45.80;;;23.68;42.39;97824.75;5021730;28;20046;-40
2022/06/16 09:30:33;;;;;;;5.68;5.00;;;24.10;46.40;;;23.77;42.06;97824.13;5021154;28;20347;-40
2022/06/16 09:33:19;;;;;;;4.53;4.10;;;24.20;45.90;;;23.94;41.40;97829.66;5021162;28;20045;-40
2022/06/16 09:35:57;;;;;;;6.32;4.80;;;24.40;45.20;;;23.84;41.34;97839.50;5020951;28;20056;-40
2022/06/16 09:38:41;;;;;;;7.45;4.10;;;24.30;45.00;;;23.98;41.77;97836.25;5020791;28;20045;-40
2022/06/16 09:44:11;;;;;;;;;;;24.50;45.50;;;23.96;41.05;97829.41;5021021;28;20056;-40
2022/06/16 09:46:49;;;;;;;6.20;4.80;;;24.40;44.70;;;24.03;41.02;97837.44;5021686;28;19917;-39
2022/06/16 09:49:48;;;;;;;5.28;4.70;;;24.40;44.70;;;24.16;41.78;97831.69;5020886;28;20355;-40
2022/06/16 09:52:59;;;;;;;5.95;4.18;;;24.50;45.80;;;24.28;40.84;97848.75;5021850;28;20165;-40
2022/06/16 09:55:41;;;;;;;7.40;5.13;;;24.70;44.60;;;24.40;40.37;97842.44;5020742;28;20044;-40
2022/06/16 09:58:22;;;;;;;5.68;4.75;;;24.80;44.00;;;24.36;40.25;97845.63;5020497;28;20050;-39
2022/06/16 10:00:53;;;;;;;6.07;4.55;;;24.70;44.10;;;24.28;40.42;97837.88;5020978;28;20049;-39
2022/06/16 10:03:48;;;;;;;5.25;4.82;;;24.70;44.20;;;24.28;41.32;97854.19;5020963;28;20054;-39
2022/06/16 10:06:56;;;;;;;6.78;4.00;;;24.70;45.20;;;24.28;40.70;97847.94;5021625;28;20363;-39
2022/06/16 10:10:16;;;;;;;5.15;4.30;;;24.70;44.30;;;24.36;40.48;97853.81;5021650;28;20256;-39
2022/06/16 10:13:27;;;;;;;5.32;4.22;;;24.80;43.80;;;24.47;40.21;97856.72;5020902;28;20346;-38
2022/06/16 10:16:12;;;;;;;5.25;4.32;;;24.90;44.10;;;24.49;40.32;97860.84;5020938;28;20050;-39
2022/06/16 10:18:42;;;;;;;7.10;4.03;;;24.90;43.60;;;24.70;40.27;97861.22;5020245;28;20044;-39
2022/06/16 10:21:12;;;;;;;5.50;4.50;;;25.00;43.90;;;24.57;40.23;97865.09;5020957;28;20060;-39
2022/06/16 10:23:53;;;;;;;5.38;4.88;;;25.00;43.80;;;24.71;39.78;97862.84;5021709;28;20053;-40
2022/06/16 10:26:21;;;;;;;6.50;4.88;;;25.10;43.50;;;24.70;39.81;97869.38;5021491;28;20045;-39
2022/06/16 10:29:00;;;;;;;5.38;4.68;;;25.00;43.50;;;24.65;38.70;97872.00;5021198;28;20060;-39
2022/06/16 10:31:45;;;;;;;5.32;4.45;;;25.10;41.60;;;24.79;39.41;97881.50;5021605;28;20046;-39
2022/06/16 10:34:28;;;;;;;5.78;4.63;;;25.20;43.10;;;24.86;39.29;97881.34;5025049;28;20362;-39
2022/06/16 10:37:25;;;;;;;4.83;4.43;;;25.40;42.50;;;24.92;40.18;97886.63;5025040;28;20064;-39
2022/06/16 10:40:05;;;;;;;4.93;4.18;;;25.40;43.20;;;25.11;39.15;97898.06;5024512;28;20076;-39
2022/06/16 10:42:47;;;;;;;5.03;4.30;;;25.60;42.40;;;25.14;38.54;97891.28;5023971;28;20052;-40
2022/06/16 10:45:29;;;;;;;5.25;4.25;;;25.70;41.20;;;24.88;38.77;97887.38;5024762;28;20052;-39
2022/06/16 10:48:09;;;;;;;4.22;3.92;;;25.40;41.80;;;25.19;38.42;97904.19;5023333;28;20048;-44
2022/06/16 10:51:11;;;;;;;5.68;4.65;;;25.60;42.40;;;25.27;38.26;97901.88;5023251;28;20049;-40
2022/06/16 10:54:00;;;;;;;6.50;5.13;;;25.70;40.90;;;25.33;37.53;97913.69;5035935;28;20070;-41
2022/06/16 10:56:28;;;;;;;5.38;4.68;;;25.80;40.30;;;25.21;36.95;97921.09;5024754;28;20060;-41
2022/06/16 10:59:05;;;;;;;6.05;4.25;;;25.70;39.00;;;25.19;37.66;97928.72;5024288;28;20046;-41
2022/06/16 11:01:41;;;;;;;5.32;4.72;;;25.60;40.50;;;25.28;37.17;97928.06;5024818;28;20045;-41
2022/06/16 11:04:17;;;;;;;5.60;4.65;;;25.80;39.30;;;25.26;37.47;97927.50;5024399;28;20064;-41
2022/06/16 11:06:52;;;;;;;5.80;4.53;;;25.80;40.00;;;25.45;37.25;97930.75;5024463;28;20046;-41
2022/06/16 11:09:27;;;;;;;5.57;4.43;;;25.90;39.70;;;25.41;37.44;97924.16;5024215;28;20099;-41
2022/06/16 11:11:59;;;;;;;5.38;4.88;;;25.90;39.90;;;25.41;36.24;97923.34;5022513;28;20042;-41
2022/06/16 11:14:43;;;;;;;7.00;4.65;;;25.90;38.50;;;25.39;36.14;97930.94;5024322;28;20046;-41
2022/06/16 11:17:22;;;;;;;4.25;3.85;;;25.90;38.30;;;25.38;34.81;97919.22;5024322;28;20046;-41
2022/06/16 11:20:22;;;;;;;5.30;4.05;;;25.90;36.40;;;25.56;35.16;97925.47;5023214;28;20052;-41
2022/06/16 11:22:51;;;;;;;8.63;4.25;;;26.10;37.50;;;25.68;35.70;97932.44;5024230;28;20050;-41
2022/06/16 11:25:37;;;;;;;5.13;4.53;;;26.20;38.00;;;25.68;36.27;97937.06;5024200;28;20058;-41
2022/06/16 11:28:09;;;;;;;4.90;4.25;;;26.20;38.50;;;25.81;35.83;97944.88;5024652;28;20049;-41
2022/06/16 11:30:59;;;;;;;5.70;4.15;;;26.30;38.10;;;25.62;35.27;97954.44;5022734;28;20050;-41